X  SluitMETAR luchtvaart weer gegevens      EBBR Brussels

Temperatuur

8°C Temperatuur

3°C Dauwpunt

71% Vochtigheid



Wind

26 KM/U

16 MPH

 7 M/S

14 KTS



230°
Zuid West
Huidig weer

Wat bewolking Wat bewolking
Luchtdruk 1025.92 (hPa) - 30.3 (in)
Zicht 6.2 (mi) - 10 (km)
Vliegveld
Vliegveld code EBBR

Locatie Brussels 14 (km)

Metar:
EBBR 211720Z 23014KT 9999 FEW030 BKN038 08/03 Q1026 TEMPO 24015G25KT

Tijd: 21-02-2020 18:20